Terminal Aerodrome Forecast
Issued by NWS

Home | Current Version | Previous Version | Text Only | Print | Product List | Glossary On
Versions: 1 2 3 4 5 6 7 8 9 10 11 12 13 14 15 16 17
000
FTUS43 KDMX 161727
TAFMCW
TAF
KMCW 161727Z 1618/1718 09008KT 2SM -FZRA BR OVC004
     FM162300 05007KT 2SM -FZRA BR OVC004
     FM170000 05008KT 2SM -FZRAPL BR OVC004
     FM170400 02008KT 1 1/2SM -FZRA BR OVC004
     FM170800 36010KT 2SM BR OVC004=

USA.gov is the U.S. government's official web portal to all federal, state and local government web resources and services.